KERO2: Robert S. Kerr Lock & Dam & Reservoir (L&D 15)

Data processed at Sun Sep 17 2017 23:15


All information presented herein is the property of the government of the United States of America and may be revised or deleted at any time without prior notice.
Dissemination of this information without the expressed written consent of the Public Affairs Office, Tulsa District U.S. Army Corps of Engineers is strictly prohibited.
These data are gathered electronically and, as presented, have not undergone any form of quality control. These data are not guaranteed to be valid or correct.
Go to home page.
Go to station list.

Upstream stations:

Downstream station:
Previous Day
Next Day
Current Day
    
SHEF ID:       KERO2     Robert S. Kerr Lock & Dam
STATION TYPE:  NAVIGATION LOCK
Normal Pool:  Bottom =   458.00, Top =   460.00

               PRECIP ELEVATION   STORAGE   TW-ELEV    INFLOW   RELEASE  AIR-TEMP  WIND-DIRWIND-SPEED REL-HUMID SOLAR-RAD   VOLTAGE  BAT-LOAD
                   in        ft     ac-ft        ft       cfs       cfs         F       deg       mph         %      W/m2      volt      volt
              Ccp-Rev   Ccp-Rev   Ccp-Rev   Ccp-Rev  Regi-Rev  Regi-Rev   Ccp-Rev   Ccp-Rev   Ccp-Rev   Ccp-Rev   Ccp-Rev   Ccp-Rev   Ccp-Rev
(US/Central)
09/15 00:00      0.00    459.63    509743    412.20      1388         0     71.01      1.00      1.39     83.95      0.00     13.86     13.48
09/15 01:00      0.00    459.65    510605    411.96      1464         0     68.92     22.50      2.44     95.43      0.00     13.87     13.36
09/15 02:00      0.00    459.64    510174    412.18      1457         0     68.81     11.70      1.83     92.39      0.00     13.85     13.48
09/15 03:00      0.00    459.68    511898    411.98       444         0     68.92     22.10      1.66     93.54      0.00     13.85     13.36
09/15 04:00      0.00    459.70    512760    412.06       228         0     69.13     39.50      1.32     91.65      0.00     13.85     13.36
09/15 05:00      0.00    459.67    511467    412.05       247         0     68.70     31.10      1.33     92.51      0.00     13.84     13.36
09/15 06:00      0.00    459.71    513191    412.01       266         0     68.04     30.40      1.02     95.56      0.00     13.86     13.36
09/15 07:00      0.00    459.63    509743    412.08       301         0     67.39     22.10      0.94     98.74      0.00     13.84     13.48
09/15 08:00      0.00    459.69    512329    412.04       519         0     69.58     41.20      0.85     93.49     43.00     13.86     13.36
09/15 09:00      0.00    459.72    513622    412.52       737         0     73.42     39.20      0.59     85.79    228.00     13.86     13.48
09/15 10:00      0.00    459.70    512760    412.06      -901      -901     79.68     45.90      1.70     70.83    445.00     13.85     13.48
09/15 11:00      0.00    459.66    511036    412.20      -901      -901     82.87    105.80      2.07     62.95    621.00     13.85     13.36
09/15 12:00      0.00    459.76    515346    412.21      -901      -901     83.53    175.50      4.92     62.10    639.00     13.86     13.36
09/15 13:00      0.00    459.75    514915    412.02      -901      -901     86.16    178.00      5.41     53.97    651.00     13.86     13.36
09/15 14:00      0.00    459.70    512760    412.75      -901      -901     87.37    137.00      3.20     48.11    909.00     13.86     13.36
09/15 15:00      0.00    459.65    510605    413.88      -901      -901     88.25    108.80      4.82     46.34    860.00     13.87     13.36
09/15 16:00      0.00    459.60    508450    414.41      -901      -901     89.11     89.50      6.20     40.84    752.00     13.87     13.36
09/15 17:00      0.00    459.58    507588    414.38      -901      -901     89.87    103.20      4.29     40.65    586.00     13.87     13.36
09/15 18:00      0.00    459.58    507588    414.30      -901      -901     89.11     90.30      2.67     42.31    374.00     13.87     13.36
09/15 19:00      0.00    459.55    506295    414.08      -901      -901     87.13    100.80      5.11     44.01    152.00     13.87     13.36
09/15 20:00      0.00    459.56    506726    412.40      -901      -901     84.83    103.80      2.76     49.21      9.00     13.89     13.36
09/15 21:00      0.00    459.53    505433    411.08      -901      -901     80.76     86.40      1.99     59.10      0.00     13.89     13.42
09/15 22:00      0.00    459.54    505864    412.23      -901      -901     78.67     99.00      2.77     64.16      0.00     13.86     13.42
09/15 23:00      0.00    459.58    507588    411.69      -901      -901     74.73     89.70      1.86     84.13      0.00     13.88     13.36